Time;durP1;ratioP1;P1;durP2;ratioP2;P2;SDS_P1;SDS_P2;PMS_P1;PMS_P2;Temp;Humidity;BMP_temperature;BMP_pressure;BME280_temperature;BME280_humidity;BME280_pressure;Samples;Min_cycle;Max_cycle;Signal;HPM_P1;HPM_P2
2022/12/14 00:03:02;;;;;;;0.83;0.83;;;;;;;;;;20913781;28;20245;-63
2022/12/14 00:13:04;;;;;;;0.57;0.57;;;;;;;;;;21007126;28;20281;-63
2022/12/14 00:23:05;;;;;;;0.83;0.73;;;;;;;;;;21034449;28;20212;-63
2022/12/14 00:33:09;;;;;;;2.80;1.33;;;;;;;;;;21030207;28;20277;-63
2022/12/14 00:43:11;;;;;;;1.03;0.90;;;;;;;;;;21046066;28;20748;-63
2022/12/14 00:53:12;;;;;;;1.13;0.97;;;;;;;;;;21028419;28;20289;-63
2022/12/14 01:03:15;;;;;;;1.80;1.40;;;;;;;;;;21027277;28;20237;-63
2022/12/14 01:13:17;;;;;;;1.17;1.00;;;;;;;;;;21026810;28;20208;-63
2022/12/14 01:23:19;;;;;;;0.67;0.50;;;;;;;;;;21041833;28;20240;-63
2022/12/14 01:33:21;;;;;;;0.87;0.70;;;;;;;;;;21024779;28;20209;-64
2022/12/14 01:43:22;;;;;;;0.63;0.40;;;;;;;;;;21024168;28;20246;-64
2022/12/14 01:53:24;;;;;;;0.30;0.30;;;;;;;;;;21023189;28;20720;-63
2022/12/14 02:03:32;;;;;;;0.97;0.80;;;-2.30;99.90;;;;;;21022369;28;20266;-64
2022/12/14 02:13:38;;;;;;;0.67;0.67;;;-2.40;99.90;;;;;;21002136;28;20217;-64
2022/12/14 02:24:09;;;;;;;0.77;0.70;;;-2.50;99.90;;;;;;20989119;28;20217;-64
2022/12/14 02:34:26;;;;;;;0.97;0.67;;;;;;;;;;21020627;28;20675;-64
2022/12/14 02:44:34;;;;;;;0.33;0.30;;;;;;;;;;20962907;28;20307;-64
2022/12/14 02:54:46;;;;;;;0.60;0.60;;;;;;;;;;20952122;28;20263;-64
2022/12/14 03:04:49;;;;;;;0.30;0.30;;;-2.30;99.90;;;;;;20951569;28;20274;-64
2022/12/14 03:14:52;;;;;;;1.00;0.80;;;;;;;;;;20934920;28;20262;-64
2022/12/14 03:25:11;;;;;;;0.23;0.23;;;-2.30;99.90;;;;;;20951052;28;20213;-63
2022/12/14 03:35:16;;;;;;;1.20;1.03;;;;;;;;;;20950602;28;20208;-63
2022/12/14 03:45:19;;;;;;;0.27;0.27;;;-2.30;99.90;;;;;;20933549;28;20224;-64
2022/12/14 03:55:38;;;;;;;0.63;0.63;;;-2.30;99.90;;;;;;20949777;28;20213;-63
2022/12/14 04:05:43;;;;;;;0.83;0.83;;;;;;;;;;20964545;28;20243;-63
2022/12/14 04:26:11;;;;;;;1.43;1.33;;;-2.30;99.90;;;;;;21063635;28;20220;-63
2022/12/14 04:36:16;;;;;;;2.27;0.93;;;;;;;;;;20987213;28;20279;-64
2022/12/14 04:46:21;;;;;;;0.27;0.27;;;;;;;;;;20957114;28;20213;-64
2022/12/14 04:56:48;;;;;;;0.20;0.20;;;-2.30;99.90;;;;;;21004225;28;20225;-65
2022/12/14 05:06:56;;;;;;;0.70;0.70;;;;;;;;;;21029045;28;20229;-64
2022/12/14 05:16:58;;;;;;;4.00;1.17;;;;;;;;;;20952416;28;20592;-63
2022/12/14 05:27:00;;;;;;;1.43;1.10;;;;;;;;;;20942011;28;20708;-63
2022/12/14 05:37:02;;;;;;;0.53;0.53;;;;;;;;;;20984491;28;20283;-64
2022/12/14 05:47:05;;;;;;;0.57;0.57;;;;;;;;;;20957022;28;20298;-63
2022/12/14 05:57:06;;;;;;;0.90;0.83;;;;;;;;;;20940347;28;20190;-63
2022/12/14 06:07:10;;;;;;;3.57;1.20;;;-1.90;99.90;;;;;;20955548;28;20232;-64
2022/12/14 06:17:12;;;;;;;1.70;1.20;;;;;;;;;;20973993;28;20223;-63
2022/12/14 06:27:14;;;;;;;0.80;0.70;;;;;;;;;;20964665;28;20287;-64
2022/12/14 06:37:16;;;;;;;0.60;0.60;;;;;;;;;;20937423;28;20217;-63
2022/12/14 06:47:18;;;;;;;1.37;0.87;;;;;;;;;;20968911;28;20229;-63
2022/12/14 06:57:20;;;;;;;1.13;0.97;;;;;;;;;;20936332;28;20286;-63
2022/12/14 07:07:22;;;;;;;1.07;0.80;;;;;;;;;;20951635;28;20232;-63
2022/12/14 07:17:24;;;;;;;0.70;0.70;;;;;;;;;;21009854;28;20213;-64
2022/12/14 07:27:26;;;;;;;1.90;0.97;;;;;;;;;;20974661;28;20255;-64
2022/12/14 07:37:28;;;;;;;1.23;0.97;;;;;;;;;;20954724;28;20227;-64
2022/12/14 07:47:30;;;;;;;1.27;0.80;;;;;;;;;;21006217;28;20282;-64
2022/12/14 07:57:33;;;;;;;1.30;1.20;;;;;;;;;;20953885;28;20271;-64
2022/12/14 08:07:35;;;;;;;1.17;0.90;;;;;;;;;;21010291;28;20213;-64
2022/12/14 08:17:37;;;;;;;0.40;0.40;;;;;;;;;;20980764;28;20235;-64
2022/12/14 08:27:39;;;;;;;1.27;0.90;;;;;;;;;;20983177;28;20257;-63
2022/12/14 08:37:41;;;;;;;1.53;0.90;;;;;;;;;;20895343;28;20222;-63
2022/12/14 08:47:45;;;;;;;0.77;0.77;;;;;;;;;;20910204;28;20229;-64
2022/12/14 08:57:47;;;;;;;0.70;0.63;;;;;;;;;;20959769;28;20790;-64
2022/12/14 09:07:49;;;;;;;1.23;1.13;;;;;;;;;;20976586;28;20278;-64
2022/12/14 09:17:51;;;;;;;1.40;0.93;;;;;;;;;;20961282;28;20323;-64
2022/12/14 09:27:53;;;;;;;1.13;0.90;;;;;;;;;;20991140;28;20237;-64
2022/12/14 09:37:55;;;;;;;1.20;1.07;;;;;;;;;;20973148;28;20216;-64
2022/12/14 09:47:57;;;;;;;2.20;1.37;;;;;;;;;;20956416;28;20225;-64
2022/12/14 09:58:06;;;;;;;1.40;1.30;;;-1.60;99.90;;;;;;20954391;28;20213;-64
2022/12/14 10:08:20;;;;;;;1.43;1.27;;;;;;;;;;20920664;28;20225;-64
2022/12/14 10:18:30;;;;;;;1.67;1.57;;;;;;;;;;20872962;28;20316;-64
2022/12/14 10:28:45;;;;;;;1.17;0.77;;;;;;;;;;20959217;28;20227;-64
2022/12/14 10:38:58;;;;;;;2.03;1.50;;;;;;;;;;21026794;28;20212;-64
2022/12/14 10:49:19;;;;;;;1.23;1.10;;;;;;;;;;21052817;28;20232;-64
2022/12/14 10:59:32;;;;;;;1.60;1.10;;;-1.50;99.90;;;;;;21033199;28;20275;-64
2022/12/14 11:09:36;;;;;;;1.10;1.00;;;;;;;;;;20987777;28;20221;-64
2022/12/14 11:19:39;;;;;;;1.93;1.43;;;;;;;;;;20996406;28;20225;-64
2022/12/14 11:29:46;;;;;;;2.70;1.77;;;;;;;;;;20967449;28;20302;-64
2022/12/14 11:39:50;;;;;;;1.73;1.40;;;;;;;;;;20967641;28;20213;-64
2022/12/14 11:49:54;;;;;;;1.73;1.20;;;-1.00;99.90;;;;;;20967005;28;20287;-65
2022/12/14 11:59:59;;;;;;;2.47;1.57;;;-1.20;99.90;;;;;;20957090;28;20283;-64
2022/12/14 12:10:16;;;;;;;2.80;1.47;;;;;;;;;;20999902;28;20254;-64
2022/12/14 12:20:22;;;;;;;1.90;1.70;;;;;;;;;;21039192;28;20266;-64
2022/12/14 12:30:28;;;;;;;1.07;0.90;;;;;;;;;;21047982;28;20273;-64
2022/12/14 12:40:32;;;;;;;4.20;2.67;;;;;;;;;;21028909;28;20288;-65
2022/12/14 12:50:38;;;;;;;1.70;1.60;;;-0.90;99.90;;;;;;21046271;28;20540;-65
2022/12/14 13:00:40;;;;;;;2.27;1.80;;;-1.10;99.90;;;;;;21030180;28;20220;-65
2022/12/14 13:10:43;;;;;;;1.83;1.20;;;;;;;;;;21011580;28;20224;-64
2022/12/14 13:20:45;;;;;;;1.63;1.27;;;;;;;;;;21044916;28;20205;-64
2022/12/14 13:31:06;;;;;;;2.63;1.73;;;;;;;;;;21059260;28;20228;-64
2022/12/14 13:41:12;;;;;;;2.60;1.67;;;;;;;;;;21059134;28;20212;-64
2022/12/14 13:51:50;;;;;;;2.23;2.03;;;;;;;;;;21057610;28;20236;-64
2022/12/14 14:01:54;;;;;;;1.20;1.07;;;;;;;;;;21009048;28;20208;-65
2022/12/14 14:12:01;;;;;;;1.50;1.10;;;-1.00;99.90;;;;;;21039919;28;20208;-65
2022/12/14 14:22:02;;;;;;;8.17;1.30;;;;;;;;;;21021343;28;20216;-65
2022/12/14 14:32:23;;;;;;;1.77;1.57;;;-1.10;99.90;;;;;;21002281;28;20283;-65
2022/12/14 14:42:26;;;;;;;1.73;1.50;;;;;;;;;;20936877;28;20236;-65
2022/12/14 14:52:38;;;;;;;2.80;1.30;;;;;;;;;;20967600;28;20229;-64
2022/12/14 15:02:41;;;;;;;3.50;2.23;;;;;;;;;;20983192;28;20239;-65
2022/12/14 15:12:47;;;;;;;1.47;1.30;;;;;;;;;;20965907;28;20760;-64
2022/12/14 15:22:50;;;;;;;1.90;1.27;;;;;;;;;;20996844;28;20208;-64
2022/12/14 15:32:53;;;;;;;1.37;1.27;;;;;;;;;;20944723;28;20224;-64
2022/12/14 15:42:57;;;;;;;2.30;1.53;;;-1.30;99.90;;;;;;21032252;28;20220;-64
2022/12/14 15:53:30;;;;;;;2.23;1.67;;;;;;;;;;21050279;28;20269;-64
2022/12/14 16:03:39;;;;;;;1.53;1.43;;;;;;;;;;20988259;28;20273;-64
2022/12/14 16:13:43;;;;;;;2.33;2.13;;;-1.30;99.90;;;;;;20970185;28;20576;-64
2022/12/14 16:23:45;;;;;;;1.50;1.33;;;;;;;;;;20945135;28;20770;-64
2022/12/14 16:34:07;;;;;;;1.60;1.50;;;-1.30;99.90;;;;;;20976574;28;20255;-64
2022/12/14 16:44:20;;;;;;;1.43;1.13;;;;;;;;;;20961817;22;20237;-69
2022/12/14 16:54:27;;;;;;;5.93;1.50;;;;;;;;;;20880557;28;20640;-70
2022/12/14 17:04:34;;;;;;;1.70;1.40;;;;;;;;;;20854819;28;20253;-69
2022/12/14 17:14:38;;;;;;;1.40;1.30;;;;;;;;;;20880347;28;20219;-69
2022/12/14 17:24:42;;;;;;;1.30;1.20;;;;;;;;;;20846981;28;20729;-68
2022/12/14 17:34:44;;;;;;;1.83;1.60;;;;;;;;;;20813213;28;20245;-72
2022/12/14 17:44:55;;;;;;;3.30;2.30;;;-1.50;99.90;;;;;;20837147;28;20315;-69
2022/12/14 17:54:57;;;;;;;3.67;2.57;;;;;;;;;;20832922;28;20209;-69
2022/12/14 18:04:59;;;;;;;3.77;1.60;;;;;;;;;;20887555;28;20242;-69
2022/12/14 18:15:01;;;;;;;2.10;1.50;;;;;;;;;;20834707;28;20253;-69
2022/12/14 18:25:03;;;;;;;1.97;1.67;;;;;;;;;;20792294;28;20594;-70
2022/12/14 18:35:05;;;;;;;2.60;2.03;;;-1.40;99.90;;;;;;20812221;28;20230;-68
2022/12/14 18:45:21;;;;;;;4.63;1.93;;;-1.40;99.90;;;;;;20845094;28;20258;-70
2022/12/14 18:55:27;;;;;;;3.63;2.10;;;-1.40;99.90;;;;;;20810084;28;20257;-69
2022/12/14 19:05:30;;;;;;;3.57;2.77;;;;;;;;;;20824224;28;20264;-72
2022/12/14 19:15:34;;;;;;;1.93;1.80;;;;;;;;;;20838497;28;20408;-68
2022/12/14 19:25:36;;;;;;;1.23;1.13;;;;;;;;;;20849717;28;20288;-70
2022/12/14 19:35:39;;;;;;;1.87;1.53;;;;;;;;;;20893214;28;20261;-71
2022/12/14 19:45:41;;;;;;;1.57;1.20;;;;;;;;;;20899559;28;20213;-69
2022/12/14 19:55:51;;;;;;;2.03;1.60;;;;;;;;;;20854643;28;20223;-69
2022/12/14 20:05:54;;;;;;;1.97;1.50;;;;;;;;;;20803337;28;20245;-70
2022/12/14 20:15:57;;;;;;;0.80;0.80;;;;;;;;;;20823723;28;20183;-70
2022/12/14 20:26:00;;;;;;;1.60;1.23;;;;;;;;;;20849397;28;20251;-69
2022/12/14 20:36:01;;;;;;;1.70;1.33;;;;;;;;;;20911463;28;20193;-69
2022/12/14 20:46:04;;;;;;;1.80;1.50;;;;;;;;;;20906944;28;20233;-70
2022/12/14 20:56:07;;;;;;;3.23;2.33;;;;;;;;;;20907579;28;20561;-69
2022/12/14 21:06:10;;;;;;;2.40;1.90;;;;;;;;;;20909311;28;20225;-70
2022/12/14 21:16:12;;;;;;;1.90;1.80;;;;;;;;;;20901217;28;20214;-69
2022/12/14 21:26:14;;;;;;;2.10;1.80;;;;;;;;;;20853727;28;20223;-70
2022/12/14 21:36:15;;;;;;;1.37;1.27;;;;;;;;;;20882409;28;20544;-72
2022/12/14 21:46:17;;;;;;;1.97;1.53;;;;;;;;;;20861392;28;20214;-69
2022/12/14 22:06:39;;;;;;;2.37;1.90;;;;;;;;;;20904152;28;20709;-70
2022/12/14 22:16:41;;;;;;;3.47;2.20;;;;;;;;;;20867943;28;20638;-71
2022/12/14 22:26:44;;;;;;;1.87;1.63;;;;;;;;;;20904043;28;20288;-72
2022/12/14 22:36:46;;;;;;;2.57;1.87;;;-1.70;99.90;;;;;;20862527;28;20300;-69
2022/12/14 22:46:49;;;;;;;2.37;1.77;;;;;;;;;;21015232;22;20241;-64
2022/12/14 22:56:54;;;;;;;5.13;3.40;;;;;;;;;;20856151;28;20240;-64
2022/12/14 23:06:55;;;;;;;2.57;2.30;;;;;;;;;;20881954;28;20580;-64
